Terminal Aerodrome Forecast
Issued by NWS

Home | Current Version | Previous Version | Text Only | Print | Product List | Glossary On
Versions: 1 2 3 4 5 6 7 8 9 10 11 12
000
FTPQ31 PGUM 231141
TAFGUM
TAF

TAF
PTKK 231141Z 2312/2412 20011KT P6SM VCSH SCT016 BKN040 OVC120
      TEMPO 2312/2316 5SM SHRA SCT014 BKN025=

USA.gov is the U.S. government's official web portal to all federal, state and local government web resources and services.